sensor_id;sensor_type;location;lat;lon;timestamp;pressure;altitude;pressure_sealevel;temperature;humidity
72855;BME280;60991;51.278;22.550;2022-12-20T00:00:47;100152.63;;;-1.45;71.60
72855;BME280;60991;51.278;22.550;2022-12-20T00:02:17;100156.19;;;-1.36;71.43
72855;BME280;60991;51.278;22.550;2022-12-20T00:03:49;100143.16;;;-1.36;70.97
72855;BME280;60991;51.278;22.550;2022-12-20T00:05:19;100157.56;;;-1.32;71.12
72855;BME280;60991;51.278;22.550;2022-12-20T00:06:49;100148.78;;;-1.31;70.62
72855;BME280;60991;51.278;22.550;2022-12-20T00:08:20;100143.72;;;-1.33;70.91
72855;BME280;60991;51.278;22.550;2022-12-20T00:09:50;100140.69;;;-1.38;71.30
72855;BME280;60991;51.278;22.550;2022-12-20T00:11:20;100146.47;;;-1.34;71.52
72855;BME280;60991;51.278;22.550;2022-12-20T00:12:51;100148.09;;;-1.33;71.06
72855;BME280;60991;51.278;22.550;2022-12-20T00:14:21;100127.81;;;-1.40;71.33
72855;BME280;60991;51.278;22.550;2022-12-20T00:16:12;100138.25;;;-1.40;71.42
72855;BME280;60991;51.278;22.550;2022-12-20T00:17:42;100131.19;;;-1.29;71.26
72855;BME280;60991;51.278;22.550;2022-12-20T00:19:13;100133.91;;;-1.21;71.52
72855;BME280;60991;51.278;22.550;2022-12-20T00:20:43;100127.75;;;-1.20;71.24
72855;BME280;60991;51.278;22.550;2022-12-20T00:22:13;100134.47;;;-1.18;71.43
72855;BME280;60991;51.278;22.550;2022-12-20T00:23:43;100127.56;;;-1.09;70.90
72855;BME280;60991;51.278;22.550;2022-12-20T00:25:13;100122.75;;;-1.04;70.82
72855;BME280;60991;51.278;22.550;2022-12-20T00:26:44;100137.97;;;-1.09;70.62
72855;BME280;60991;51.278;22.550;2022-12-20T00:28:14;100128.84;;;-1.13;70.65
72855;BME280;60991;51.278;22.550;2022-12-20T00:29:44;100127.03;;;-1.13;70.75
72855;BME280;60991;51.278;22.550;2022-12-20T00:31:16;100128.84;;;-1.13;70.85
72855;BME280;60991;51.278;22.550;2022-12-20T00:32:46;100121.66;;;-1.11;71.43
72855;BME280;60991;51.278;22.550;2022-12-20T00:34:17;100122.66;;;-1.12;71.25
72855;BME280;60991;51.278;22.550;2022-12-20T00:35:47;100123.47;;;-1.12;71.62
72855;BME280;60991;51.278;22.550;2022-12-20T00:37:17;100120.69;;;-1.10;71.22
72855;BME280;60991;51.278;22.550;2022-12-20T00:38:50;100123.84;;;-1.07;71.07
72855;BME280;60991;51.278;22.550;2022-12-20T00:40:20;100111.50;;;-1.05;71.24
72855;BME280;60991;51.278;22.550;2022-12-20T00:41:51;100116.03;;;-1.07;71.36
72855;BME280;60991;51.278;22.550;2022-12-20T00:43:21;100111.09;;;-1.10;71.92
72855;BME280;60991;51.278;22.550;2022-12-20T00:44:51;100117.44;;;-1.12;72.14
72855;BME280;60991;51.278;22.550;2022-12-20T00:46:22;100110.44;;;-1.12;72.06
72855;BME280;60991;51.278;22.550;2022-12-20T00:47:52;100103.59;;;-1.13;72.11
72855;BME280;60991;51.278;22.550;2022-12-20T00:49:22;100099.56;;;-1.07;72.01
72855;BME280;60991;51.278;22.550;2022-12-20T00:51:01;100105.19;;;-1.02;72.32
72855;BME280;60991;51.278;22.550;2022-12-20T00:52:31;100104.88;;;-0.99;72.06
72855;BME280;60991;51.278;22.550;2022-12-20T00:54:01;100104.59;;;-0.96;72.07
72855;BME280;60991;51.278;22.550;2022-12-20T00:55:31;100099.41;;;-0.96;71.99
72855;BME280;60991;51.278;22.550;2022-12-20T00:57:02;100102.00;;;-0.96;71.92
72855;BME280;60991;51.278;22.550;2022-12-20T00:58:34;100096.25;;;-0.99;72.25
72855;BME280;60991;51.278;22.550;2022-12-20T01:00:05;100094.47;;;-0.99;72.35
72855;BME280;60991;51.278;22.550;2022-12-20T01:01:35;100100.50;;;-0.98;72.29
72855;BME280;60991;51.278;22.550;2022-12-20T01:03:06;100098.19;;;-1.01;72.43
72855;BME280;60991;51.278;22.550;2022-12-20T01:04:36;100106.00;;;-1.01;72.85
72855;BME280;60991;51.278;22.550;2022-12-20T01:06:08;100092.00;;;-1.00;72.83
72855;BME280;60991;51.278;22.550;2022-12-20T01:07:38;100088.69;;;-0.93;72.04
72855;BME280;60991;51.278;22.550;2022-12-20T01:09:09;100090.28;;;-0.92;71.99
72855;BME280;60991;51.278;22.550;2022-12-20T01:10:40;100095.22;;;-0.89;71.95
72855;BME280;60991;51.278;22.550;2022-12-20T01:12:10;100086.97;;;-0.84;72.37
72855;BME280;60991;51.278;22.550;2022-12-20T01:13:43;100085.88;;;-0.82;72.34
72855;BME280;60991;51.278;22.550;2022-12-20T01:15:14;100087.34;;;-0.79;72.56
72855;BME280;60991;51.278;22.550;2022-12-20T01:16:46;100087.78;;;-0.84;72.74
72855;BME280;60991;51.278;22.550;2022-12-20T01:18:16;100093.81;;;-0.83;72.68
72855;BME280;60991;51.278;22.550;2022-12-20T01:19:46;100079.81;;;-0.82;72.58
72855;BME280;60991;51.278;22.550;2022-12-20T01:21:19;100087.66;;;-0.82;72.29
72855;BME280;60991;51.278;22.550;2022-12-20T01:22:49;100079.81;;;-0.82;72.40
72855;BME280;60991;51.278;22.550;2022-12-20T01:24:20;100090.09;;;-0.81;72.61
72855;BME280;60991;51.278;22.550;2022-12-20T01:25:50;100091.75;;;-0.80;72.57
72855;BME280;60991;51.278;22.550;2022-12-20T01:27:20;100087.88;;;-0.76;72.52
72855;BME280;60991;51.278;22.550;2022-12-20T01:28:52;100075.97;;;-0.78;72.58
72855;BME280;60991;51.278;22.550;2022-12-20T01:30:23;100062.94;;;-0.78;72.62
72855;BME280;60991;51.278;22.550;2022-12-20T01:31:54;100070.59;;;-0.77;72.90
72855;BME280;60991;51.278;22.550;2022-12-20T01:33:24;100060.69;;;-0.73;72.70
72855;BME280;60991;51.278;22.550;2022-12-20T01:34:54;100064.09;;;-0.73;72.93
72855;BME280;60991;51.278;22.550;2022-12-20T01:36:28;100065.59;;;-0.70;72.99
72855;BME280;60991;51.278;22.550;2022-12-20T01:37:58;100066.06;;;-0.75;72.80
72855;BME280;60991;51.278;22.550;2022-12-20T01:39:28;100062.19;;;-0.71;72.93
72855;BME280;60991;51.278;22.550;2022-12-20T01:40:59;100063.00;;;-0.70;73.01
72855;BME280;60991;51.278;22.550;2022-12-20T01:42:29;100053.69;;;-0.73;73.19
72855;BME280;60991;51.278;22.550;2022-12-20T01:45:54;100061.44;;;-0.63;73.20
72855;BME280;60991;51.278;22.550;2022-12-20T01:47:25;100047.88;;;-0.66;73.56
72855;BME280;60991;51.278;22.550;2022-12-20T01:50:49;100051.16;;;-0.64;73.45
72855;BME280;60991;51.278;22.550;2022-12-20T01:52:29;100050.88;;;-0.61;73.47
72855;BME280;60991;51.278;22.550;2022-12-20T01:54:06;100054.31;;;-0.61;73.44
72855;BME280;60991;51.278;22.550;2022-12-20T01:55:37;100053.19;;;-0.58;73.64
72855;BME280;60991;51.278;22.550;2022-12-20T01:57:12;100053.84;;;-0.56;73.53
72855;BME280;60991;51.278;22.550;2022-12-20T01:58:45;100035.59;;;-0.56;74.09
72855;BME280;60991;51.278;22.550;2022-12-20T02:00:18;100055.31;;;-0.54;73.93
72855;BME280;60991;51.278;22.550;2022-12-20T02:01:49;100039.69;;;-0.54;73.52
72855;BME280;60991;51.278;22.550;2022-12-20T02:03:19;100039.03;;;-0.56;73.90
72855;BME280;60991;51.278;22.550;2022-12-20T02:04:49;100031.22;;;-0.56;74.34
72855;BME280;60991;51.278;22.550;2022-12-20T02:06:22;100051.91;;;-0.54;74.26
72855;BME280;60991;51.278;22.550;2022-12-20T02:07:55;100044.31;;;-0.48;73.95
72855;BME280;60991;51.278;22.550;2022-12-20T02:09:26;100040.59;;;-0.45;73.70
72855;BME280;60991;51.278;22.550;2022-12-20T02:12:37;100038.63;;;-0.43;73.75
72855;BME280;60991;51.278;22.550;2022-12-20T02:15:55;100031.50;;;-0.41;73.86
72855;BME280;60991;51.278;22.550;2022-12-20T02:27:11;100026.63;;;-0.36;74.31
72855;BME280;60991;51.278;22.550;2022-12-20T02:29:04;100027.28;;;-0.34;74.69
72855;BME280;60991;51.278;22.550;2022-12-20T02:30:39;100014.63;;;-0.29;74.66
72855;BME280;60991;51.278;22.550;2022-12-20T02:33:46;100008.44;;;-0.28;74.85
72855;BME280;60991;51.278;22.550;2022-12-20T02:35:24;99997.63;;;-0.33;75.25
72855;BME280;60991;51.278;22.550;2022-12-20T02:36:55;99992.72;;;-0.36;75.42
72855;BME280;60991;51.278;22.550;2022-12-20T02:38:36;99999.78;;;-0.28;75.79
72855;BME280;60991;51.278;22.550;2022-12-20T02:40:07;100001.56;;;-0.29;75.81
72855;BME280;60991;51.278;22.550;2022-12-20T02:41:42;99995.69;;;-0.31;76.42
72855;BME280;60991;51.278;22.550;2022-12-20T02:43:14;99996.50;;;-0.30;76.11
72855;BME280;60991;51.278;22.550;2022-12-20T02:45:10;99993.22;;;-0.32;76.11
72855;BME280;60991;51.278;22.550;2022-12-20T02:46:42;99997.34;;;-0.30;76.42
72855;BME280;60991;51.278;22.550;2022-12-20T02:48:12;99977.44;;;-0.31;76.29
72855;BME280;60991;51.278;22.550;2022-12-20T02:49:44;99985.94;;;-0.29;76.45
72855;BME280;60991;51.278;22.550;2022-12-20T02:51:18;99987.88;;;-0.31;76.59
72855;BME280;60991;51.278;22.550;2022-12-20T02:52:52;99980.03;;;-0.31;76.70
72855;BME280;60991;51.278;22.550;2022-12-20T02:54:23;99978.25;;;-0.30;76.83
72855;BME280;60991;51.278;22.550;2022-12-20T02:56:00;99981.97;;;-0.33;76.66
72855;BME280;60991;51.278;22.550;2022-12-20T02:59:16;99976.38;;;-0.20;76.51
72855;BME280;60991;51.278;22.550;2022-12-20T03:00:48;99984.84;;;-0.18;76.28
72855;BME280;60991;51.278;22.550;2022-12-20T03:02:20;99987.63;;;-0.20;76.79
72855;BME280;60991;51.278;22.550;2022-12-20T03:03:53;99985.03;;;-0.20;77.29
72855;BME280;60991;51.278;22.550;2022-12-20T03:05:25;99967.59;;;-0.19;77.24
72855;BME280;60991;51.278;22.550;2022-12-20T03:07:01;99969.84;;;-0.16;76.87
72855;BME280;60991;51.278;22.550;2022-12-20T03:08:32;99964.97;;;-0.19;76.91
72855;BME280;60991;51.278;22.550;2022-12-20T03:10:02;99979.47;;;-0.17;77.13
72855;BME280;60991;51.278;22.550;2022-12-20T03:11:32;99955.66;;;-0.22;77.37
72855;BME280;60991;51.278;22.550;2022-12-20T03:13:03;99968.22;;;-0.17;77.25
72855;BME280;60991;51.278;22.550;2022-12-20T03:14:34;99964.47;;;-0.15;77.50
72855;BME280;60991;51.278;22.550;2022-12-20T03:16:05;99961.56;;;-0.12;77.67
72855;BME280;60991;51.278;22.550;2022-12-20T03:17:35;99957.16;;;-0.11;77.28
72855;BME280;60991;51.278;22.550;2022-12-20T03:19:05;99936.31;;;-0.11;77.23
72855;BME280;60991;51.278;22.550;2022-12-20T03:20:36;99963.72;;;-0.07;77.49
72855;BME280;60991;51.278;22.550;2022-12-20T03:22:06;99958.00;;;-0.11;77.91
72855;BME280;60991;51.278;22.550;2022-12-20T03:23:36;99953.22;;;-0.15;78.41
72855;BME280;60991;51.278;22.550;2022-12-20T03:25:07;99955.53;;;-0.12;78.44
72855;BME280;60991;51.278;22.550;2022-12-20T03:26:37;99958.50;;;-0.07;78.55
72855;BME280;60991;51.278;22.550;2022-12-20T03:28:07;99966.63;;;-0.10;78.42
72855;BME280;60991;51.278;22.550;2022-12-20T03:29:37;99949.50;;;-0.13;78.79
72855;BME280;60991;51.278;22.550;2022-12-20T03:31:08;99951.97;;;-0.11;79.02
72855;BME280;60991;51.278;22.550;2022-12-20T03:32:38;99951.13;;;-0.12;78.91
72855;BME280;60991;51.278;22.550;2022-12-20T03:34:08;99948.53;;;-0.12;78.76
72855;BME280;60991;51.278;22.550;2022-12-20T03:35:38;99944.78;;;-0.09;79.10
72855;BME280;60991;51.278;22.550;2022-12-20T03:37:09;99943.31;;;-0.12;78.97
72855;BME280;60991;51.278;22.550;2022-12-20T03:38:39;99934.50;;;-0.11;79.27
72855;BME280;60991;51.278;22.550;2022-12-20T03:40:10;99953.59;;;-0.10;79.32
72855;BME280;60991;51.278;22.550;2022-12-20T03:41:40;99954.94;;;-0.06;78.50
72855;BME280;60991;51.278;22.550;2022-12-20T03:43:10;99950.84;;;-0.09;78.63
72855;BME280;60991;51.278;22.550;2022-12-20T03:44:41;99945.47;;;-0.07;78.95
72855;BME280;60991;51.278;22.550;2022-12-20T03:46:11;99948.38;;;-0.10;79.28
72855;BME280;60991;51.278;22.550;2022-12-20T03:47:41;99947.41;;;-0.09;79.39
72855;BME280;60991;51.278;22.550;2022-12-20T03:49:11;99938.00;;;-0.02;79.39
72855;BME280;60991;51.278;22.550;2022-12-20T03:50:42;99942.25;;;-0.01;78.97
72855;BME280;60991;51.278;22.550;2022-12-20T03:52:13;99940.59;;;-0.02;79.42
72855;BME280;60991;51.278;22.550;2022-12-20T03:53:43;99945.97;;;-0.04;79.49
72855;BME280;60991;51.278;22.550;2022-12-20T03:55:14;99942.03;;;-0.08;79.40
72855;BME280;60991;51.278;22.550;2022-12-20T03:56:44;99934.06;;;-0.06;79.48
72855;BME280;60991;51.278;22.550;2022-12-20T03:58:14;99936.19;;;-0.02;79.62
72855;BME280;60991;51.278;22.550;2022-12-20T03:59:44;99933.75;;;-0.03;79.32
72855;BME280;60991;51.278;22.550;2022-12-20T04:01:26;99938.28;;;-0.05;79.81
72855;BME280;60991;51.278;22.550;2022-12-20T04:02:57;99930.78;;;-0.08;79.73
72855;BME280;60991;51.278;22.550;2022-12-20T04:04:27;99943.66;;;-0.07;80.26
72855;BME280;60991;51.278;22.550;2022-12-20T04:05:58;99948.06;;;-0.07;79.81
72855;BME280;60991;51.278;22.550;2022-12-20T04:07:28;99936.00;;;-0.08;80.09
72855;BME280;60991;51.278;22.550;2022-12-20T04:08:58;99921.16;;;-0.08;80.68
72855;BME280;60991;51.278;22.550;2022-12-20T04:10:28;99938.81;;;-0.02;79.84
72855;BME280;60991;51.278;22.550;2022-12-20T04:12:00;99936.03;;;0.00;79.85
72855;BME280;60991;51.278;22.550;2022-12-20T04:13:30;99944.34;;;0.04;79.36
72855;BME280;60991;51.278;22.550;2022-12-20T04:15:00;99923.16;;;-0.02;79.99
72855;BME280;60991;51.278;22.550;2022-12-20T04:16:32;99927.72;;;-0.04;79.56
72855;BME280;60991;51.278;22.550;2022-12-20T04:18:02;99930.66;;;0.02;79.79
72855;BME280;60991;51.278;22.550;2022-12-20T04:19:33;99937.84;;;0.08;79.01
72855;BME280;60991;51.278;22.550;2022-12-20T04:21:03;99932.94;;;0.05;79.51
72855;BME280;60991;51.278;22.550;2022-12-20T04:22:33;99916.16;;;0.07;79.53
72855;BME280;60991;51.278;22.550;2022-12-20T04:24:04;99910.47;;;0.12;79.05
72855;BME280;60991;51.278;22.550;2022-12-20T04:25:34;99914.06;;;0.11;79.03
72855;BME280;60991;51.278;22.550;2022-12-20T04:27:05;99916.81;;;0.09;78.95
72855;BME280;60991;51.278;22.550;2022-12-20T04:28:35;99924.81;;;0.08;79.50
72855;BME280;60991;51.278;22.550;2022-12-20T04:30:06;99902.34;;;0.15;79.55
72855;BME280;60991;51.278;22.550;2022-12-20T04:31:36;99898.25;;;0.12;79.35
72855;BME280;60991;51.278;22.550;2022-12-20T04:33:07;99908.38;;;0.15;79.77
72855;BME280;60991;51.278;22.550;2022-12-20T04:34:37;99902.81;;;0.10;79.81
72855;BME280;60991;51.278;22.550;2022-12-20T04:36:08;99900.34;;;0.09;79.21
72855;BME280;60991;51.278;22.550;2022-12-20T04:37:38;99889.59;;;0.12;79.47
72855;BME280;60991;51.278;22.550;2022-12-20T04:39:08;99889.59;;;0.20;79.40
72855;BME280;60991;51.278;22.550;2022-12-20T04:40:38;99894.81;;;0.20;78.74
72855;BME280;60991;51.278;22.550;2022-12-20T04:42:09;99895.16;;;0.17;79.06
72855;BME280;60991;51.278;22.550;2022-12-20T04:43:39;99888.16;;;0.17;79.41
72855;BME280;60991;51.278;22.550;2022-12-20T04:45:10;99895.47;;;0.14;79.40
72855;BME280;60991;51.278;22.550;2022-12-20T04:46:40;99884.06;;;0.15;79.54
72855;BME280;60991;51.278;22.550;2022-12-20T04:48:10;99895.31;;;0.15;79.91
72855;BME280;60991;51.278;22.550;2022-12-20T04:49:40;99884.53;;;0.10;79.82
72855;BME280;60991;51.278;22.550;2022-12-20T04:51:11;99880.47;;;0.16;80.14
72855;BME280;60991;51.278;22.550;2022-12-20T04:52:41;99878.69;;;0.16;80.13
72855;BME280;60991;51.278;22.550;2022-12-20T04:54:12;99909.34;;;0.14;80.01
72855;BME280;60991;51.278;22.550;2022-12-20T04:55:42;99883.56;;;0.19;80.12
72855;BME280;60991;51.278;22.550;2022-12-20T04:57:13;99891.41;;;0.19;80.70
72855;BME280;60991;51.278;22.550;2022-12-20T04:58:43;99896.00;;;0.17;80.34
72855;BME280;60991;51.278;22.550;2022-12-20T05:00:14;99881.63;;;0.21;80.59
72855;BME280;60991;51.278;22.550;2022-12-20T05:01:44;99882.59;;;0.20;80.82
72855;BME280;60991;51.278;22.550;2022-12-20T05:03:14;99890.94;;;0.24;80.30
72855;BME280;60991;51.278;22.550;2022-12-20T05:04:44;99890.28;;;0.22;80.18
72855;BME280;60991;51.278;22.550;2022-12-20T05:06:15;99889.13;;;0.24;80.38
72855;BME280;60991;51.278;22.550;2022-12-20T05:07:45;99889.97;;;0.25;80.66
72855;BME280;60991;51.278;22.550;2022-12-20T05:09:16;99890.47;;;0.28;80.65
72855;BME280;60991;51.278;22.550;2022-12-20T05:10:47;99883.97;;;0.32;80.00
72855;BME280;60991;51.278;22.550;2022-12-20T05:12:17;99906.94;;;0.29;80.27
72855;BME280;60991;51.278;22.550;2022-12-20T05:13:47;99884.41;;;0.28;80.44
72855;BME280;60991;51.278;22.550;2022-12-20T05:15:17;99877.25;;;0.30;80.66
72855;BME280;60991;51.278;22.550;2022-12-20T05:16:47;99863.06;;;0.32;80.59
72855;BME280;60991;51.278;22.550;2022-12-20T05:18:18;99858.50;;;0.34;80.55
72855;BME280;60991;51.278;22.550;2022-12-20T05:19:48;99849.19;;;0.32;80.18
72855;BME280;60991;51.278;22.550;2022-12-20T05:21:18;99843.97;;;0.32;80.43
72855;BME280;60991;51.278;22.550;2022-12-20T05:22:48;99840.53;;;0.31;80.93
72855;BME280;60991;51.278;22.550;2022-12-20T05:24:18;99841.34;;;0.32;80.90
72855;BME280;60991;51.278;22.550;2022-12-20T05:25:49;99838.75;;;0.32;80.66
72855;BME280;60991;51.278;22.550;2022-12-20T05:27:20;99831.72;;;0.32;81.21
72855;BME280;60991;51.278;22.550;2022-12-20T05:28:50;99826.81;;;0.38;81.06
72855;BME280;60991;51.278;22.550;2022-12-20T05:30:21;99828.31;;;0.40;80.51
72855;BME280;60991;51.278;22.550;2022-12-20T05:31:51;99830.59;;;0.43;80.54
72855;BME280;60991;51.278;22.550;2022-12-20T05:33:21;99826.19;;;0.44;80.82
72855;BME280;60991;51.278;22.550;2022-12-20T05:34:51;99837.44;;;0.44;80.80
72855;BME280;60991;51.278;22.550;2022-12-20T05:36:22;99844.63;;;0.42;80.95
72855;BME280;60991;51.278;22.550;2022-12-20T05:37:52;99835.16;;;0.41;80.84
72855;BME280;60991;51.278;22.550;2022-12-20T05:39:22;99845.59;;;0.41;80.60
72855;BME280;60991;51.278;22.550;2022-12-20T05:40:52;99823.56;;;0.44;80.81
72855;BME280;60991;51.278;22.550;2022-12-20T05:42:22;99844.94;;;0.39;80.67
72855;BME280;60991;51.278;22.550;2022-12-20T05:43:53;99835.81;;;0.35;80.78
72855;BME280;60991;51.278;22.550;2022-12-20T05:45:23;99841.19;;;0.33;81.85
72855;BME280;60991;51.278;22.550;2022-12-20T05:46:53;99840.22;;;0.34;81.74
72855;BME280;60991;51.278;22.550;2022-12-20T05:48:23;99838.59;;;0.33;81.59
72855;BME280;60991;51.278;22.550;2022-12-20T05:49:53;99823.75;;;0.34;81.69
72855;BME280;60991;51.278;22.550;2022-12-20T05:51:24;99840.69;;;0.38;81.83
72855;BME280;60991;51.278;22.550;2022-12-20T05:52:54;99837.09;;;0.39;81.23
72855;BME280;60991;51.278;22.550;2022-12-20T05:54:24;99840.53;;;0.40;81.26
72855;BME280;60991;51.278;22.550;2022-12-20T05:55:55;99846.09;;;0.37;81.34
72855;BME280;60991;51.278;22.550;2022-12-20T05:57:25;99858.00;;;0.39;81.37
72855;BME280;60991;51.278;22.550;2022-12-20T05:58:55;99844.47;;;0.44;81.39
72855;BME280;60991;51.278;22.550;2022-12-20T06:00:25;99848.56;;;0.46;81.42
72855;BME280;60991;51.278;22.550;2022-12-20T06:01:55;99852.66;;;0.49;80.76
72855;BME280;60991;51.278;22.550;2022-12-20T06:03:26;99846.59;;;0.48;80.82
72855;BME280;60991;51.278;22.550;2022-12-20T06:04:56;99850.84;;;0.49;80.60
72855;BME280;60991;51.278;22.550;2022-12-20T06:06:26;99861.97;;;0.51;81.15
72855;BME280;60991;51.278;22.550;2022-12-20T06:07:56;99856.56;;;0.53;81.09
72855;BME280;60991;51.278;22.550;2022-12-20T06:09:27;99856.75;;;0.51;80.79
72855;BME280;60991;51.278;22.550;2022-12-20T06:10:57;99865.22;;;0.53;81.19
72855;BME280;60991;51.278;22.550;2022-12-20T06:12:27;99853.97;;;0.53;81.06
72855;BME280;60991;51.278;22.550;2022-12-20T06:13:57;99840.75;;;0.54;80.75
72855;BME280;60991;51.278;22.550;2022-12-20T06:15:28;99845.16;;;0.54;80.62
72855;BME280;60991;51.278;22.550;2022-12-20T06:16:58;99853.97;;;0.53;80.81
72855;BME280;60991;51.278;22.550;2022-12-20T06:18:29;99847.41;;;0.57;80.90
72855;BME280;60991;51.278;22.550;2022-12-20T06:19:59;99855.44;;;0.55;80.61
72855;BME280;60991;51.278;22.550;2022-12-20T06:21:29;99838.94;;;0.55;81.16
72855;BME280;60991;51.278;22.550;2022-12-20T06:23:00;99839.94;;;0.54;81.08
72855;BME280;60991;51.278;22.550;2022-12-20T06:24:31;99829.31;;;0.55;81.10
72855;BME280;60991;51.278;22.550;2022-12-20T06:26:01;99824.72;;;0.57;80.79
72855;BME280;60991;51.278;22.550;2022-12-20T06:27:31;99827.19;;;0.59;80.73
72855;BME280;60991;51.278;22.550;2022-12-20T06:29:03;99826.34;;;0.58;81.19
72855;BME280;60991;51.278;22.550;2022-12-20T06:30:33;99827.84;;;0.61;80.43
72855;BME280;60991;51.278;22.550;2022-12-20T06:32:04;99814.94;;;0.59;80.89
72855;BME280;60991;51.278;22.550;2022-12-20T06:33:35;99818.38;;;0.60;80.79
72855;BME280;60991;51.278;22.550;2022-12-20T06:35:06;99825.06;;;0.62;80.80
72855;BME280;60991;51.278;22.550;2022-12-20T06:36:36;99825.88;;;0.63;80.54
72855;BME280;60991;51.278;22.550;2022-12-20T06:38:06;99829.47;;;0.62;80.63
72855;BME280;60991;51.278;22.550;2022-12-20T06:39:36;99815.28;;;0.64;80.43
72855;BME280;60991;51.278;22.550;2022-12-20T06:41:07;99813.97;;;0.68;80.35
72855;BME280;60991;51.278;22.550;2022-12-20T06:42:37;99813.97;;;0.68;80.03
72855;BME280;60991;51.278;22.550;2022-12-20T06:44:07;99818.69;;;0.65;80.78
72855;BME280;60991;51.278;22.550;2022-12-20T06:45:38;99814.28;;;0.65;80.81
72855;BME280;60991;51.278;22.550;2022-12-20T06:47:08;99816.59;;;0.68;80.70
72855;BME280;60991;51.278;22.550;2022-12-20T06:48:38;99820.00;;;0.69;80.85
72855;BME280;60991;51.278;22.550;2022-12-20T06:50:09;99819.84;;;0.71;80.65
72855;BME280;60991;51.278;22.550;2022-12-20T06:51:39;99815.13;;;0.74;80.40
72855;BME280;60991;51.278;22.550;2022-12-20T06:53:10;99833.22;;;0.76;80.22
72855;BME280;60991;51.278;22.550;2022-12-20T06:54:40;99827.69;;;0.79;79.88
72855;BME280;60991;51.278;22.550;2022-12-20T06:56:10;99833.06;;;0.77;80.07
72855;BME280;60991;51.278;22.550;2022-12-20T06:57:40;99844.50;;;0.76;80.30
72855;BME280;60991;51.278;22.550;2022-12-20T06:59:10;99841.41;;;0.81;80.15
72855;BME280;60991;51.278;22.550;2022-12-20T07:00:41;99824.09;;;0.80;80.11
72855;BME280;60991;51.278;22.550;2022-12-20T07:02:11;99828.16;;;0.82;79.67
72855;BME280;60991;51.278;22.550;2022-12-20T07:03:41;99840.91;;;0.85;79.58
72855;BME280;60991;51.278;22.550;2022-12-20T07:05:11;99838.97;;;0.87;80.19
72855;BME280;60991;51.278;22.550;2022-12-20T07:06:42;99833.56;;;0.89;79.67
72855;BME280;60991;51.278;22.550;2022-12-20T07:08:12;99832.59;;;0.90;79.38
72855;BME280;60991;51.278;22.550;2022-12-20T07:09:42;99847.28;;;0.91;79.65
72855;BME280;60991;51.278;22.550;2022-12-20T07:11:12;99835.66;;;0.93;79.80
72855;BME280;60991;51.278;22.550;2022-12-20T07:12:43;99819.16;;;0.93;79.21
72855;BME280;60991;51.278;22.550;2022-12-20T07:14:13;99857.59;;;0.92;79.54
72855;BME280;60991;51.278;22.550;2022-12-20T07:15:43;99844.53;;;0.92;79.77
72855;BME280;60991;51.278;22.550;2022-12-20T07:17:14;99825.22;;;0.93;79.45
72855;BME280;60991;51.278;22.550;2022-12-20T07:18:51;99828.66;;;0.94;79.20
72855;BME280;60991;51.278;22.550;2022-12-20T07:20:21;99816.88;;;0.98;79.07
72855;BME280;60991;51.278;22.550;2022-12-20T07:21:51;99844.81;;;0.97;78.71
72855;BME280;60991;51.278;22.550;2022-12-20T07:23:22;99824.06;;;0.96;79.18
72855;BME280;60991;51.278;22.550;2022-12-20T07:24:52;99836.81;;;0.99;79.59
72855;BME280;60991;51.278;22.550;2022-12-20T07:26:22;99836.50;;;1.02;79.44
72855;BME280;60991;51.278;22.550;2022-12-20T07:27:52;99827.19;;;0.99;79.48
72855;BME280;60991;51.278;22.550;2022-12-20T07:29:22;99833.06;;;1.01;79.02
72855;BME280;60991;51.278;22.550;2022-12-20T07:30:53;99827.50;;;1.04;79.00
72855;BME280;60991;51.278;22.550;2022-12-20T07:32:23;99831.09;;;1.03;79.21
72855;BME280;60991;51.278;22.550;2022-12-20T07:33:53;99837.16;;;1.04;79.10
72855;BME280;60991;51.278;22.550;2022-12-20T07:35:23;99849.72;;;1.09;78.70
72855;BME280;60991;51.278;22.550;2022-12-20T07:36:54;99827.69;;;1.11;78.23
72855;BME280;60991;51.278;22.550;2022-12-20T07:38:24;99836.66;;;1.09;78.69
72855;BME280;60991;51.278;22.550;2022-12-20T07:39:54;99840.56;;;1.04;78.63
72855;BME280;60991;51.278;22.550;2022-12-20T07:41:24;99836.16;;;1.05;78.67
72855;BME280;60991;51.278;22.550;2022-12-20T07:42:54;99848.56;;;1.27;78.07
72855;BME280;60991;51.278;22.550;2022-12-20T07:44:25;99848.84;;;1.41;76.87
72855;BME280;60991;51.278;22.550;2022-12-20T07:45:55;99839.88;;;1.43;76.62
72855;BME280;60991;51.278;22.550;2022-12-20T07:47:27;99837.91;;;1.37;77.58
72855;BME280;60991;51.278;22.550;2022-12-20T07:48:58;99839.06;;;1.34;77.89
72855;BME280;60991;51.278;22.550;2022-12-20T07:50:29;99841.50;;;1.36;77.86
72855;BME280;60991;51.278;22.550;2022-12-20T07:52:01;99840.53;;;1.37;77.33
72855;BME280;60991;51.278;22.550;2022-12-20T07:53:37;99838.22;;;1.34;76.98
72855;BME280;60991;51.278;22.550;2022-12-20T07:55:09;99838.88;;;1.36;77.11
72855;BME280;60991;51.278;22.550;2022-12-20T07:56:45;99831.38;;;1.41;76.84
72855;BME280;60991;51.278;22.550;2022-12-20T07:58:17;99827.94;;;1.32;77.79
72855;BME280;60991;51.278;22.550;2022-12-20T07:59:50;99825.81;;;1.36;77.63
72855;BME280;60991;51.278;22.550;2022-12-20T08:01:21;99821.88;;;1.32;76.97
72855;BME280;60991;51.278;22.550;2022-12-20T08:04:26;99821.06;;;1.39;76.84
72855;BME280;60991;51.278;22.550;2022-12-20T08:05:59;99832.03;;;1.35;77.34
72855;BME280;60991;51.278;22.550;2022-12-20T08:07:31;99816.66;;;1.32;77.68
72855;BME280;60991;51.278;22.550;2022-12-20T08:09:04;99811.41;;;1.40;77.16
72855;BME280;60991;51.278;22.550;2022-12-20T08:10:36;99832.19;;;1.33;77.23
72855;BME280;60991;51.278;22.550;2022-12-20T08:12:09;99821.72;;;1.33;77.27
72855;BME280;60991;51.278;22.550;2022-12-20T08:13:41;99820.41;;;1.37;76.65
72855;BME280;60991;51.278;22.550;2022-12-20T08:15:12;99827.44;;;1.37;77.04
72855;BME280;60991;51.278;22.550;2022-12-20T08:16:42;99823.84;;;1.38;76.96
72855;BME280;60991;51.278;22.550;2022-12-20T08:18:12;99831.53;;;1.39;77.20
72855;BME280;60991;51.278;22.550;2022-12-20T08:19:42;99836.91;;;1.46;76.67